sensor_id;sensor_type;location;lat;lon;timestamp;pressure;altitude;pressure_sealevel;temperature;humidity
77192;BME280;66172;48.526;8.078;2023-02-13T00:01:22;101420.44;;;1.47;85.63
77192;BME280;66172;48.526;8.078;2023-02-13T00:03:48;101424.06;;;1.65;84.80
77192;BME280;66172;48.526;8.078;2023-02-13T00:06:13;101429.78;;;1.68;85.87
77192;BME280;66172;48.526;8.078;2023-02-13T00:08:39;101421.16;;;1.78;84.86
77192;BME280;66172;48.526;8.078;2023-02-13T00:11:05;101418.25;;;1.68;85.36
77192;BME280;66172;48.526;8.078;2023-02-13T00:13:32;101416.00;;;1.53;85.81
77192;BME280;66172;48.526;8.078;2023-02-13T00:16:00;101410.44;;;1.89;85.31
77192;BME280;66172;48.526;8.078;2023-02-13T00:18:27;101410.91;;;1.75;85.28
77192;BME280;66172;48.526;8.078;2023-02-13T00:21:01;101416.56;;;1.55;85.56
77192;BME280;66172;48.526;8.078;2023-02-13T00:23:29;101413.16;;;1.48;85.88
77192;BME280;66172;48.526;8.078;2023-02-13T00:25:56;101420.84;;;1.44;86.29
77192;BME280;66172;48.526;8.078;2023-02-13T00:28:22;101415.97;;;1.41;86.00
77192;BME280;66172;48.526;8.078;2023-02-13T00:30:48;101423.47;;;1.51;85.78
77192;BME280;66172;48.526;8.078;2023-02-13T00:33:14;101419.00;;;1.45;86.10
77192;BME280;66172;48.526;8.078;2023-02-13T00:35:40;101419.56;;;1.35;86.65
77192;BME280;66172;48.526;8.078;2023-02-13T00:38:06;101423.28;;;1.34;86.84
77192;BME280;66172;48.526;8.078;2023-02-13T00:40:32;101424.06;;;1.23;86.69
77192;BME280;66172;48.526;8.078;2023-02-13T00:42:58;101420.44;;;1.18;86.92
77192;BME280;66172;48.526;8.078;2023-02-13T00:45:24;101414.50;;;1.16;87.10
77192;BME280;66172;48.526;8.078;2023-02-13T00:47:50;101416.00;;;1.12;87.71
77192;BME280;66172;48.526;8.078;2023-02-13T00:50:16;101421.34;;;1.12;86.86
77192;BME280;66172;48.526;8.078;2023-02-13T00:52:42;101419.00;;;1.04;86.91
77192;BME280;66172;48.526;8.078;2023-02-13T00:55:07;101418.41;;;1.02;87.62
77192;BME280;66172;48.526;8.078;2023-02-13T00:57:33;101413.69;;;1.27;87.12
77192;BME280;66172;48.526;8.078;2023-02-13T00:59:59;101428.34;;;1.54;85.99
77192;BME280;66172;48.526;8.078;2023-02-13T01:02:25;101430.31;;;1.59;85.44
77192;BME280;66172;48.526;8.078;2023-02-13T01:04:51;101427.75;;;1.40;86.66
77192;BME280;66172;48.526;8.078;2023-02-13T01:07:17;101430.59;;;1.27;87.05
77192;BME280;66172;48.526;8.078;2023-02-13T01:09:43;101417.91;;;1.23;86.69
77192;BME280;66172;48.526;8.078;2023-02-13T01:12:09;101432.09;;;1.23;87.31
77192;BME280;66172;48.526;8.078;2023-02-13T01:14:35;101432.56;;;1.20;87.07
77192;BME280;66172;48.526;8.078;2023-02-13T01:17:01;101434.06;;;1.16;86.67
77192;BME280;66172;48.526;8.078;2023-02-13T01:19:26;101436.38;;;1.13;86.74
77192;BME280;66172;48.526;8.078;2023-02-13T01:21:52;101435.44;;;1.07;86.31
77192;BME280;66172;48.526;8.078;2023-02-13T01:24:18;101436.19;;;0.96;87.30
77192;BME280;66172;48.526;8.078;2023-02-13T01:26:44;101436.06;;;0.91;87.06
77192;BME280;66172;48.526;8.078;2023-02-13T01:29:11;101433.22;;;0.86;87.59
77192;BME280;66172;48.526;8.078;2023-02-13T01:31:37;101432.03;;;1.00;86.86
77192;BME280;66172;48.526;8.078;2023-02-13T01:34:03;101442.78;;;1.12;86.06
77192;BME280;66172;48.526;8.078;2023-02-13T01:36:29;101438.16;;;1.19;86.37
77192;BME280;66172;48.526;8.078;2023-02-13T01:38:56;101436.31;;;1.31;85.51
77192;BME280;66172;48.526;8.078;2023-02-13T01:41:24;101432.47;;;1.27;85.36
77192;BME280;66172;48.526;8.078;2023-02-13T01:43:53;101436.31;;;1.31;85.37
77192;BME280;66172;48.526;8.078;2023-02-13T01:46:30;101432.03;;;1.41;85.42
77192;BME280;66172;48.526;8.078;2023-02-13T01:49:02;101433.53;;;1.37;85.53
77192;BME280;66172;48.526;8.078;2023-02-13T01:51:32;101431.31;;;1.23;86.21
77192;BME280;66172;48.526;8.078;2023-02-13T01:54:09;101440.56;;;1.09;87.30
77192;BME280;66172;48.526;8.078;2023-02-13T01:56:45;101438.69;;;1.09;86.83
77192;BME280;66172;48.526;8.078;2023-02-13T01:59:17;101444.03;;;1.09;86.17
77192;BME280;66172;48.526;8.078;2023-02-13T02:01:44;101437.88;;;1.09;86.96
77192;BME280;66172;48.526;8.078;2023-02-13T02:04:17;101446.03;;;1.14;86.41
77192;BME280;66172;48.526;8.078;2023-02-13T02:06:51;101440.47;;;1.15;86.71
77192;BME280;66172;48.526;8.078;2023-02-13T02:09:22;101436.34;;;1.01;86.74
77192;BME280;66172;48.526;8.078;2023-02-13T02:11:58;101437.56;;;1.17;86.12
77192;BME280;66172;48.526;8.078;2023-02-13T02:14:25;101443.00;;;1.10;86.25
77192;BME280;66172;48.526;8.078;2023-02-13T02:16:51;101430.25;;;0.94;86.50
77192;BME280;66172;48.526;8.078;2023-02-13T02:22:01;101438.88;;;1.26;85.24
77192;BME280;66172;48.526;8.078;2023-02-13T02:25:03;101442.06;;;1.05;86.27
77192;BME280;66172;48.526;8.078;2023-02-13T02:33:17;101434.69;;;1.00;85.51
77192;BME280;66172;48.526;8.078;2023-02-13T02:38:48;101434.56;;;0.95;85.97
77192;BME280;66172;48.526;8.078;2023-02-13T02:44:15;101435.25;;;0.90;86.58
77192;BME280;66172;48.526;8.078;2023-02-13T02:46:58;101438.50;;;0.92;86.35
77192;BME280;66172;48.526;8.078;2023-02-13T02:49:53;101434.41;;;0.90;86.88
77192;BME280;66172;48.526;8.078;2023-02-13T02:52:38;101438.31;;;0.76;87.37
77192;BME280;66172;48.526;8.078;2023-02-13T02:55:16;101429.63;;;0.62;87.68
77192;BME280;66172;48.526;8.078;2023-02-13T02:57:48;101431.56;;;0.55;87.88
77192;BME280;66172;48.526;8.078;2023-02-13T03:00:38;101435.13;;;0.49;88.24
77192;BME280;66172;48.526;8.078;2023-02-13T03:03:24;101434.00;;;0.57;88.52
77192;BME280;66172;48.526;8.078;2023-02-13T03:06:36;101432.78;;;0.71;86.58
77192;BME280;66172;48.526;8.078;2023-02-13T03:09:10;101427.53;;;0.64;85.90
77192;BME280;66172;48.526;8.078;2023-02-13T03:11:56;101444.19;;;0.66;87.01
77192;BME280;66172;48.526;8.078;2023-02-13T03:14:41;101437.13;;;0.72;85.95
77192;BME280;66172;48.526;8.078;2023-02-13T03:17:10;101435.72;;;0.69;86.31
77192;BME280;66172;48.526;8.078;2023-02-13T03:20:17;101445.44;;;0.64;86.65
77192;BME280;66172;48.526;8.078;2023-02-13T03:23:25;101445.88;;;0.61;87.21
77192;BME280;66172;48.526;8.078;2023-02-13T03:26:44;101448.19;;;0.57;87.86
77192;BME280;66172;48.526;8.078;2023-02-13T03:32:11;101446.13;;;0.41;87.04
77192;BME280;66172;48.526;8.078;2023-02-13T03:34:49;101445.81;;;0.31;87.29
77192;BME280;66172;48.526;8.078;2023-02-13T03:37:38;101447.28;;;0.27;88.10
77192;BME280;66172;48.526;8.078;2023-02-13T03:40:30;101445.00;;;0.30;88.21
77192;BME280;66172;48.526;8.078;2023-02-13T03:43:12;101453.41;;;0.34;87.57
77192;BME280;66172;48.526;8.078;2023-02-13T03:45:43;101447.63;;;0.55;86.65
77192;BME280;66172;48.526;8.078;2023-02-13T03:48:34;101451.94;;;0.56;86.23
77192;BME280;66172;48.526;8.078;2023-02-13T03:51:27;101453.88;;;0.49;86.20
77192;BME280;66172;48.526;8.078;2023-02-13T03:53:58;101449.84;;;0.40;87.44
77192;BME280;66172;48.526;8.078;2023-02-13T03:56:26;101459.94;;;0.38;87.61
77192;BME280;66172;48.526;8.078;2023-02-13T03:59:19;101465.53;;;0.55;87.05
77192;BME280;66172;48.526;8.078;2023-02-13T04:01:53;101462.47;;;0.69;86.78
77192;BME280;66172;48.526;8.078;2023-02-13T04:04:45;101461.00;;;0.55;87.10
77192;BME280;66172;48.526;8.078;2023-02-13T04:07:16;101463.88;;;0.54;87.22
77192;BME280;66172;48.526;8.078;2023-02-13T04:09:55;101468.72;;;0.45;88.17
77192;BME280;66172;48.526;8.078;2023-02-13T04:15:25;101465.84;;;0.22;88.64
77192;BME280;66172;48.526;8.078;2023-02-13T04:18:23;101463.22;;;0.40;88.21
77192;BME280;66172;48.526;8.078;2023-02-13T04:20:51;101479.56;;;0.50;87.14
77192;BME280;66172;48.526;8.078;2023-02-13T04:23:18;101477.06;;;0.55;87.43
77192;BME280;66172;48.526;8.078;2023-02-13T04:25:47;101475.78;;;0.58;86.88
77192;BME280;66172;48.526;8.078;2023-02-13T04:28:15;101480.97;;;0.34;87.60
77192;BME280;66172;48.526;8.078;2023-02-13T04:30:41;101482.66;;;0.29;87.78
77192;BME280;66172;48.526;8.078;2023-02-13T04:33:07;101481.22;;;0.51;87.12
77192;BME280;66172;48.526;8.078;2023-02-13T04:35:33;101480.47;;;0.80;86.13
77192;BME280;66172;48.526;8.078;2023-02-13T04:38:00;101480.97;;;0.71;86.55
77192;BME280;66172;48.526;8.078;2023-02-13T04:40:26;101484.63;;;0.58;86.62
77192;BME280;66172;48.526;8.078;2023-02-13T04:42:52;101478.66;;;0.20;87.82
77192;BME280;66172;48.526;8.078;2023-02-13T04:45:18;101474.81;;;0.09;88.35
77192;BME280;66172;48.526;8.078;2023-02-13T04:47:53;101485.25;;;-0.08;88.09
77192;BME280;66172;48.526;8.078;2023-02-13T04:50:20;101483.69;;;-0.15;87.98
77192;BME280;66172;48.526;8.078;2023-02-13T04:52:47;101477.31;;;-0.21;88.52
77192;BME280;66172;48.526;8.078;2023-02-13T04:55:15;101480.78;;;-0.14;88.72
77192;BME280;66172;48.526;8.078;2023-02-13T04:57:40;101476.25;;;0.12;88.36
77192;BME280;66172;48.526;8.078;2023-02-13T05:00:07;101472.38;;;0.08;88.03
77192;BME280;66172;48.526;8.078;2023-02-13T05:02:33;101480.94;;;-0.09;88.79
77192;BME280;66172;48.526;8.078;2023-02-13T05:04:59;101475.28;;;-0.19;89.06
77192;BME280;66172;48.526;8.078;2023-02-13T05:07:25;101479.63;;;-0.24;89.69
77192;BME280;66172;48.526;8.078;2023-02-13T05:09:50;101472.38;;;-0.17;88.97
77192;BME280;66172;48.526;8.078;2023-02-13T05:12:16;101462.72;;;0.07;89.17
77192;BME280;66172;48.526;8.078;2023-02-13T05:14:42;101462.34;;;0.03;89.18
77192;BME280;66172;48.526;8.078;2023-02-13T05:17:08;101472.88;;;-0.02;89.75
77192;BME280;66172;48.526;8.078;2023-02-13T05:19:34;101463.44;;;-0.05;88.95
77192;BME280;66172;48.526;8.078;2023-02-13T05:22:00;101470.31;;;-0.15;89.21
77192;BME280;66172;48.526;8.078;2023-02-13T05:24:44;101478.78;;;-0.18;89.62
77192;BME280;66172;48.526;8.078;2023-02-13T05:27:10;101474.06;;;-0.23;89.60
77192;BME280;66172;48.526;8.078;2023-02-13T05:29:36;101474.88;;;-0.22;90.09
77192;BME280;66172;48.526;8.078;2023-02-13T05:32:02;101471.19;;;-0.21;89.74
77192;BME280;66172;48.526;8.078;2023-02-13T05:34:28;101472.09;;;-0.09;89.71
77192;BME280;66172;48.526;8.078;2023-02-13T05:36:54;101466.94;;;-0.04;89.25
77192;BME280;66172;48.526;8.078;2023-02-13T05:39:20;101469.28;;;-0.14;89.12
77192;BME280;66172;48.526;8.078;2023-02-13T05:41:47;101468.06;;;-0.18;89.12
77192;BME280;66172;48.526;8.078;2023-02-13T05:44:13;101470.97;;;-0.20;89.42
77192;BME280;66172;48.526;8.078;2023-02-13T05:46:40;101475.09;;;-0.24;89.35
77192;BME280;66172;48.526;8.078;2023-02-13T05:49:08;101465.03;;;-0.22;89.17
77192;BME280;66172;48.526;8.078;2023-02-13T05:51:34;101466.59;;;-0.14;89.20
77192;BME280;66172;48.526;8.078;2023-02-13T05:54:00;101476.03;;;-0.12;88.66
77192;BME280;66172;48.526;8.078;2023-02-13T05:56:26;101469.44;;;-0.09;88.75
77192;BME280;66172;48.526;8.078;2023-02-13T05:58:53;101469.66;;;-0.11;89.59
77192;BME280;66172;48.526;8.078;2023-02-13T06:01:19;101470.91;;;-0.13;88.91
77192;BME280;66172;48.526;8.078;2023-02-13T06:03:46;101469.22;;;-0.08;88.68
77192;BME280;66172;48.526;8.078;2023-02-13T06:06:12;101476.38;;;-0.02;88.39
77192;BME280;66172;48.526;8.078;2023-02-13T06:08:38;101474.06;;;0.02;88.40
77192;BME280;66172;48.526;8.078;2023-02-13T06:11:04;101488.66;;;0.06;87.57
77192;BME280;66172;48.526;8.078;2023-02-13T06:13:30;101488.03;;;0.04;86.98
77192;BME280;66172;48.526;8.078;2023-02-13T06:15:56;101491.31;;;0.06;86.95
77192;BME280;66172;48.526;8.078;2023-02-13T06:18:22;101489.66;;;0.05;87.08
77192;BME280;66172;48.526;8.078;2023-02-13T06:20:48;101498.53;;;0.06;86.61
77192;BME280;66172;48.526;8.078;2023-02-13T06:23:14;101504.44;;;0.08;86.83
77192;BME280;66172;48.526;8.078;2023-02-13T06:25:40;101498.91;;;0.09;86.28
77192;BME280;66172;48.526;8.078;2023-02-13T06:28:06;101505.66;;;0.12;85.95
77192;BME280;66172;48.526;8.078;2023-02-13T06:30:32;101510.19;;;0.11;86.32
77192;BME280;66172;48.526;8.078;2023-02-13T06:32:58;101516.75;;;0.15;86.29
77192;BME280;66172;48.526;8.078;2023-02-13T06:35:25;101519.34;;;0.22;86.07
77192;BME280;66172;48.526;8.078;2023-02-13T06:37:51;101525.09;;;0.25;86.35
77192;BME280;66172;48.526;8.078;2023-02-13T06:40:17;101518.88;;;0.31;85.63
77192;BME280;66172;48.526;8.078;2023-02-13T06:42:44;101520.28;;;0.34;85.73
77192;BME280;66172;48.526;8.078;2023-02-13T06:45:10;101522.50;;;0.37;86.15
77192;BME280;66172;48.526;8.078;2023-02-13T06:47:44;101525.75;;;0.45;85.68
77192;BME280;66172;48.526;8.078;2023-02-13T06:50:11;101527.72;;;0.50;85.44
77192;BME280;66172;48.526;8.078;2023-02-13T06:52:37;101528.09;;;0.54;85.25
77192;BME280;66172;48.526;8.078;2023-02-13T06:55:04;101527.25;;;0.60;85.45
77192;BME280;66172;48.526;8.078;2023-02-13T06:57:31;101529.94;;;0.60;85.76
77192;BME280;66172;48.526;8.078;2023-02-13T06:59:59;101531.47;;;0.67;85.22
77192;BME280;66172;48.526;8.078;2023-02-13T07:02:25;101536.41;;;0.70;85.25
77192;BME280;66172;48.526;8.078;2023-02-13T07:04:50;101539.22;;;0.75;86.11
77192;BME280;66172;48.526;8.078;2023-02-13T07:07:16;101546.22;;;0.76;85.73
77192;BME280;66172;48.526;8.078;2023-02-13T07:09:42;101543.69;;;0.81;86.07
77192;BME280;66172;48.526;8.078;2023-02-13T07:12:08;101547.78;;;0.84;85.82
77192;BME280;66172;48.526;8.078;2023-02-13T07:14:34;101554.25;;;0.94;85.14
77192;BME280;66172;48.526;8.078;2023-02-13T07:17:00;101553.56;;;0.99;85.37
77192;BME280;66172;48.526;8.078;2023-02-13T07:19:26;101554.63;;;0.98;85.82
77192;BME280;66172;48.526;8.078;2023-02-13T07:21:52;101557.31;;;0.98;86.28
77192;BME280;66172;48.526;8.078;2023-02-13T07:24:17;101549.03;;;0.99;86.83
77192;BME280;66172;48.526;8.078;2023-02-13T07:26:43;101555.66;;;0.97;86.55
77192;BME280;66172;48.526;8.078;2023-02-13T07:29:09;101550.69;;;0.82;86.96
77192;BME280;66172;48.526;8.078;2023-02-13T07:31:35;101548.28;;;0.74;86.61
77192;BME280;66172;48.526;8.078;2023-02-13T07:34:01;101559.69;;;0.45;87.16
77192;BME280;66172;48.526;8.078;2023-02-13T07:36:27;101561.31;;;0.21;88.53
77192;BME280;66172;48.526;8.078;2023-02-13T07:38:53;101557.00;;;-0.05;89.32
77192;BME280;66172;48.526;8.078;2023-02-13T07:41:19;101554.59;;;-0.13;90.02
77192;BME280;66172;48.526;8.078;2023-02-13T07:43:45;101558.28;;;-0.07;90.55
77192;BME280;66172;48.526;8.078;2023-02-13T07:46:11;101552.09;;;-0.08;91.34
77192;BME280;66172;48.526;8.078;2023-02-13T07:48:37;101554.81;;;0.11;91.48
77192;BME280;66172;48.526;8.078;2023-02-13T07:51:04;101547.94;;;0.28;91.07
77192;BME280;66172;48.526;8.078;2023-02-13T07:53:30;101549.53;;;0.54;90.27
77192;BME280;66172;48.526;8.078;2023-02-13T07:55:56;101556.06;;;0.58;90.26
77192;BME280;66172;48.526;8.078;2023-02-13T07:58:22;101554.00;;;0.78;91.15
77192;BME280;66172;48.526;8.078;2023-02-13T08:00:48;101557.59;;;1.08;89.74
77192;BME280;66172;48.526;8.078;2023-02-13T08:03:14;101560.91;;;1.70;87.49
77192;BME280;66172;48.526;8.078;2023-02-13T08:05:40;101558.38;;;2.86;83.58
77192;BME280;66172;48.526;8.078;2023-02-13T08:08:06;101562.44;;;3.80;77.97
77192;BME280;66172;48.526;8.078;2023-02-13T08:10:32;101554.00;;;4.71;74.93
77192;BME280;66172;48.526;8.078;2023-02-13T08:13:16;101557.84;;;5.62;70.12
77192;BME280;66172;48.526;8.078;2023-02-13T08:15:42;101556.16;;;5.83;68.50
77192;BME280;66172;48.526;8.078;2023-02-13T08:18:09;101556.00;;;6.21;67.62
77192;BME280;66172;48.526;8.078;2023-02-13T08:20:35;101554.91;;;7.01;64.54
77192;BME280;66172;48.526;8.078;2023-02-13T08:23:03;101553.69;;;6.77;63.08
77192;BME280;66172;48.526;8.078;2023-02-13T08:25:29;101554.09;;;7.73;61.51
77192;BME280;66172;48.526;8.078;2023-02-13T08:27:55;101554.97;;;8.74;59.02
77192;BME280;66172;48.526;8.078;2023-02-13T08:30:21;101548.09;;;9.02;58.08
77192;BME280;66172;48.526;8.078;2023-02-13T08:32:47;101552.50;;;8.78;58.89
77192;BME280;66172;48.526;8.078;2023-02-13T08:35:13;101550.13;;;8.31;60.04
77192;BME280;66172;48.526;8.078;2023-02-13T08:37:39;101548.66;;;7.68;61.75
77192;BME280;66172;48.526;8.078;2023-02-13T08:40:05;101544.91;;;7.01;63.89
77192;BME280;66172;48.526;8.078;2023-02-13T08:42:34;101548.41;;;6.50;65.48
77192;BME280;66172;48.526;8.078;2023-02-13T08:45:00;101544.53;;;6.09;67.07
77192;BME280;66172;48.526;8.078;2023-02-13T08:47:25;101539.47;;;5.37;69.75
77192;BME280;66172;48.526;8.078;2023-02-13T08:49:51;101537.28;;;5.13;70.69
77192;BME280;66172;48.526;8.078;2023-02-13T08:52:17;101547.31;;;4.95;71.44
77192;BME280;66172;48.526;8.078;2023-02-13T08:54:43;101549.50;;;4.60;72.87
77192;BME280;66172;48.526;8.078;2023-02-13T08:57:09;101537.31;;;4.58;73.76
77192;BME280;66172;48.526;8.078;2023-02-13T08:59:35;101542.69;;;4.36;74.74
77192;BME280;66172;48.526;8.078;2023-02-13T09:02:01;101537.66;;;4.61;73.85
77192;BME280;66172;48.526;8.078;2023-02-13T09:04:26;101538.50;;;4.28;75.32
77192;BME280;66172;48.526;8.078;2023-02-13T09:06:52;101539.97;;;4.36;75.27
77192;BME280;66172;48.526;8.078;2023-02-13T09:09:18;101540.13;;;4.29;75.81
77192;BME280;66172;48.526;8.078;2023-02-13T09:11:44;101554.56;;;4.40;75.78
77192;BME280;66172;48.526;8.078;2023-02-13T09:14:10;101558.16;;;4.12;76.73
77192;BME280;66172;48.526;8.078;2023-02-13T09:16:36;101552.38;;;4.03;76.41
77192;BME280;66172;48.526;8.078;2023-02-13T09:19:02;101553.91;;;3.99;76.58
77192;BME280;66172;48.526;8.078;2023-02-13T09:21:29;101551.91;;;3.78;77.47
77192;BME280;66172;48.526;8.078;2023-02-13T09:23:55;101554.22;;;3.86;76.88
77192;BME280;66172;48.526;8.078;2023-02-13T09:26:21;101552.34;;;3.87;76.21
77192;BME280;66172;48.526;8.078;2023-02-13T09:28:47;101554.88;;;3.93;76.09
77192;BME280;66172;48.526;8.078;2023-02-13T09:31:16;101558.28;;;3.72;76.69
77192;BME280;66172;48.526;8.078;2023-02-13T09:33:44;101558.97;;;3.96;76.45
77192;BME280;66172;48.526;8.078;2023-02-13T09:36:16;101552.28;;;3.98;75.79
77192;BME280;66172;48.526;8.078;2023-02-13T09:38:44;101554.56;;;4.07;75.71
77192;BME280;66172;48.526;8.078;2023-02-13T09:41:14;101554.28;;;3.75;75.82
77192;BME280;66172;48.526;8.078;2023-02-13T09:47:02;101556.44;;;4.06;75.81
77192;BME280;66172;48.526;8.078;2023-02-13T09:49:31;101568.13;;;4.12;74.03
77192;BME280;66172;48.526;8.078;2023-02-13T09:51:58;101565.72;;;4.15;75.19
77192;BME280;66172;48.526;8.078;2023-02-13T09:54:24;101567.31;;;4.28;74.50
77192;BME280;66172;48.526;8.078;2023-02-13T09:57:14;101566.38;;;4.06;75.09
77192;BME280;66172;48.526;8.078;2023-02-13T10:00:02;101573.34;;;4.18;75.37
77192;BME280;66172;48.526;8.078;2023-02-13T10:08:40;101571.75;;;3.89;76.75
77192;BME280;66172;48.526;8.078;2023-02-13T10:16:29;101579.19;;;4.15;75.16
77192;BME280;66172;48.526;8.078;2023-02-13T10:19:03;101576.94;;;4.24;75.51
77192;BME280;66172;48.526;8.078;2023-02-13T10:21:37;101570.06;;;4.33;75.30
77192;BME280;66172;48.526;8.078;2023-02-13T10:24:13;101577.25;;;4.11;76.07
77192;BME280;66172;48.526;8.078;2023-02-13T10:26:43;101569.75;;;4.29;75.60
77192;BME280;66172;48.526;8.078;2023-02-13T10:29:24;101567.47;;;4.21;75.55
77192;BME280;66172;48.526;8.078;2023-02-13T10:32:17;101576.03;;;4.18;76.06
77192;BME280;66172;48.526;8.078;2023-02-13T10:34:45;101565.53;;;4.50;74.77
77192;BME280;66172;48.526;8.078;2023-02-13T10:37:19;101571.22;;;4.70;74.44
77192;BME280;66172;48.526;8.078;2023-02-13T10:39:50;101561.72;;;4.84;73.55
77192;BME280;66172;48.526;8.078;2023-02-13T10:42:20;101565.38;;;4.95;73.31
77192;BME280;66172;48.526;8.078;2023-02-13T10:48:18;101568.50;;;4.70;73.10
77192;BME280;66172;48.526;8.078;2023-02-13T10:51:07;101557.47;;;4.72;74.39
77192;BME280;66172;48.526;8.078;2023-02-13T10:56:41;101555.97;;;4.97;73.74
77192;BME280;66172;48.526;8.078;2023-02-13T11:04:45;101550.97;;;4.89;73.11
77192;BME280;66172;48.526;8.078;2023-02-13T11:07:14;101560.41;;;5.09;72.64
77192;BME280;66172;48.526;8.078;2023-02-13T11:09:44;101555.78;;;5.04;73.16
77192;BME280;66172;48.526;8.078;2023-02-13T11:12:30;101553.28;;;5.19;72.56
77192;BME280;66172;48.526;8.078;2023-02-13T11:14:58;101550.19;;;5.32;71.67
77192;BME280;66172;48.526;8.078;2023-02-13T11:17:28;101542.22;;;5.21;73.00
77192;BME280;66172;48.526;8.078;2023-02-13T11:19:57;101538.38;;;5.38;71.60
77192;BME280;66172;48.526;8.078;2023-02-13T11:22:30;101538.34;;;5.33;72.87
77192;BME280;66172;48.526;8.078;2023-02-13T11:25:03;101544.94;;;4.99;74.06
77192;BME280;66172;48.526;8.078;2023-02-13T11:27:33;101537.69;;;4.83;74.83
77192;BME280;66172;48.526;8.078;2023-02-13T11:30:06;101538.75;;;5.20;73.72
77192;BME280;66172;48.526;8.078;2023-02-13T11:33:20;101539.38;;;5.54;72.59
77192;BME280;66172;48.526;8.078;2023-02-13T11:35:46;101534.75;;;5.28;73.70
77192;BME280;66172;48.526;8.078;2023-02-13T11:40:44;101529.56;;;5.21;74.48
77192;BME280;66172;48.526;8.078;2023-02-13T11:43:33;101534.91;;;5.38;74.30
77192;BME280;66172;48.526;8.078;2023-02-13T11:46:21;101531.44;;;5.42;74.18
77192;BME280;66172;48.526;8.078;2023-02-13T11:49:02;101530.28;;;5.38;74.20
77192;BME280;66172;48.526;8.078;2023-02-13T11:51:43;101531.22;;;5.49;74.40
77192;BME280;66172;48.526;8.078;2023-02-13T11:57:32;101532.28;;;5.70;73.41
77192;BME280;66172;48.526;8.078;2023-02-13T11:59:59;101532.69;;;5.35;74.78
77192;BME280;66172;48.526;8.078;2023-02-13T12:02:31;101534.38;;;5.63;74.21
77192;BME280;66172;48.526;8.078;2023-02-13T12:05:17;101526.88;;;5.70;74.12
77192;BME280;66172;48.526;8.078;2023-02-13T12:07:44;101536.44;;;5.82;73.63
77192;BME280;66172;48.526;8.078;2023-02-13T12:10:28;101524.31;;;5.58;74.37
77192;BME280;66172;48.526;8.078;2023-02-13T12:12:57;101528.19;;;5.67;74.89
77192;BME280;66172;48.526;8.078;2023-02-13T12:15:26;101530.03;;;5.88;73.08
77192;BME280;66172;48.526;8.078;2023-02-13T12:23:28;101526.66;;;5.98;73.36
77192;BME280;66172;48.526;8.078;2023-02-13T12:26:16;101528.50;;;5.71;74.28
77192;BME280;66172;48.526;8.078;2023-02-13T12:29:18;101516.59;;;5.93;74.04
77192;BME280;66172;48.526;8.078;2023-02-13T12:32:04;101511.06;;;6.10;73.11
77192;BME280;66172;48.526;8.078;2023-02-13T12:40:29;101512.34;;;5.76;74.62
77192;BME280;66172;48.526;8.078;2023-02-13T12:57:26;101503.03;;;6.57;71.28
77192;BME280;66172;48.526;8.078;2023-02-13T13:05:47;101500.78;;;6.44;72.19
77192;BME280;66172;48.526;8.078;2023-02-13T13:11:36;101495.81;;;6.68;71.79
77192;BME280;66172;48.526;8.078;2023-02-13T13:14:22;101503.84;;;6.58;72.57
77192;BME280;66172;48.526;8.078;2023-02-13T13:17:10;101500.94;;;6.27;73.38
77192;BME280;66172;48.526;8.078;2023-02-13T13:19:49;101503.72;;;6.06;73.84
77192;BME280;66172;48.526;8.078;2023-02-13T13:22:22;101504.00;;;6.04;73.87
77192;BME280;66172;48.526;8.078;2023-02-13T13:27:52;101494.56;;;6.07;73.85
77192;BME280;66172;48.526;8.078;2023-02-13T13:30:32;101502.69;;;5.80;75.17
77192;BME280;66172;48.526;8.078;2023-02-13T13:33:11;101508.84;;;5.75;75.82
77192;BME280;66172;48.526;8.078;2023-02-13T13:35:42;101507.09;;;5.86;74.59
77192;BME280;66172;48.526;8.078;2023-02-13T13:38:19;101496.13;;;5.97;74.10
77192;BME280;66172;48.526;8.078;2023-02-13T13:43:32;101500.09;;;5.90;74.99
77192;BME280;66172;48.526;8.078;2023-02-13T13:51:24;101482.03;;;5.90;75.51
77192;BME280;66172;48.526;8.078;2023-02-13T13:56:25;101484.25;;;5.72;76.26
77192;BME280;66172;48.526;8.078;2023-02-13T13:58:51;101477.06;;;5.82;75.91
77192;BME280;66172;48.526;8.078;2023-02-13T14:01:27;101478.53;;;5.95;75.23
77192;BME280;66172;48.526;8.078;2023-02-13T14:03:59;101472.13;;;6.01;74.32
77192;BME280;66172;48.526;8.078;2023-02-13T14:06:27;101475.81;;;5.90;74.38
77192;BME280;66172;48.526;8.078;2023-02-13T14:09:41;101470.28;;;5.80;75.66
77192;BME280;66172;48.526;8.078;2023-02-13T14:14:49;101469.72;;;5.78;76.24
77192;BME280;66172;48.526;8.078;2023-02-13T14:17:15;101473.84;;;5.85;76.09
77192;BME280;66172;48.526;8.078;2023-02-13T14:20:01;101474.97;;;5.89;75.72
77192;BME280;66172;48.526;8.078;2023-02-13T14:22:35;101468.00;;;5.93;75.39
77192;BME280;66172;48.526;8.078;2023-02-13T14:25:06;101465.03;;;5.95;75.32
77192;BME280;66172;48.526;8.078;2023-02-13T14:27:55;101467.53;;;6.01;75.34
77192;BME280;66172;48.526;8.078;2023-02-13T14:30:27;101466.97;;;5.99;75.36
77192;BME280;66172;48.526;8.078;2023-02-13T14:32:54;101468.31;;;5.97;75.67
77192;BME280;66172;48.526;8.078;2023-02-13T14:35:27;101460.44;;;5.90;75.86
77192;BME280;66172;48.526;8.078;2023-02-13T14:37:56;101461.25;;;5.96;75.51
77192;BME280;66172;48.526;8.078;2023-02-13T14:43:26;101460.56;;;6.11;75.15
77192;BME280;66172;48.526;8.078;2023-02-13T14:46:27;101465.50;;;6.19;74.85
77192;BME280;66172;48.526;8.078;2023-02-13T14:48:59;101466.56;;;6.18;74.79
77192;BME280;66172;48.526;8.078;2023-02-13T14:51:35;101453.50;;;6.05;75.44
77192;BME280;66172;48.526;8.078;2023-02-13T14:56:58;101455.09;;;6.00;75.28
77192;BME280;66172;48.526;8.078;2023-02-13T14:59:28;101458.53;;;5.91;75.61
77192;BME280;66172;48.526;8.078;2023-02-13T15:05:03;101453.53;;;5.78;76.38
77192;BME280;66172;48.526;8.078;2023-02-13T15:07:35;101453.72;;;5.66;76.76
77192;BME280;66172;48.526;8.078;2023-02-13T15:12:58;101446.72;;;5.43;77.58
77192;BME280;66172;48.526;8.078;2023-02-13T15:15:30;101440.88;;;5.51;77.52
77192;BME280;66172;48.526;8.078;2023-02-13T15:18:03;101428.47;;;5.50;77.64